Archival Weather

Chicago O'Hare International

Chicago, Illinois (KORD)

Report from: Wednesday, July 19, 2023 12:51 AM CDT
Current time: Thursday, July 18, 2024 10:45 PM CDT

Current weather – Weather history – Daily summaries
Weather forecast

Temperature19.4°C (66.9°F)
Dew point12.2°C (54.0°F)
Winds Calm
Visibility10 mi. (16.1 km)
Clouds Sky clear
Altimeter30.03 in.Hg (1017 mB)
Relative humidity63 %
Density altitude602 ft. (183 m)
Sea-level pressure101.7 kPa (1017 mB, 30.02 in.Hg)
Max temp last 6 hours24.4°C (75.9°F)
Min temp last 6 hours19.4°C (66.9°F)
Max temp last 24 hours27.2°C (81.0°F)
Min temp last 24 hours17.2°C (63.0°F)
Remarks System requires maintenance
Automated weather observing station with precipitation discriminator
Pressure rising, then falling
Flight conditions Visual Meteorological Conditions
Raw dataKORD 190551Z 00000KT 10SM CLR 19/12 A3003 RMK AO2 SLP166 T01940122 10244 20194 402720172 50008 $
An error has occurred. This application may no longer respond until reloaded. Reload 🗙